createdAt,value
2022-11-29T03:45:44.910Z,1.90
2022-11-29T03:46:45.042Z,2.30
2022-11-29T03:47:44.988Z,3.10
2022-11-29T03:48:44.920Z,3.50
2022-11-29T03:49:44.838Z,3.80
2022-11-29T03:50:44.784Z,3.10
2022-11-29T03:51:44.760Z,3.10
2022-11-29T03:52:44.766Z,3.00
2022-11-29T03:53:46.006Z,3.10
2022-11-29T03:54:46.248Z,3.80
2022-11-29T03:55:46.000Z,3.20
2022-11-29T03:56:45.974Z,3.40
2022-11-29T03:57:45.948Z,3.20
2022-11-29T03:58:45.979Z,3.30
2022-11-29T03:59:45.945Z,3.10
2022-11-29T04:00:45.899Z,3.40
2022-11-29T04:01:45.987Z,3.30
2022-11-29T04:02:45.948Z,3.50
2022-11-29T04:03:45.844Z,3.00
2022-11-29T04:04:46.044Z,3.60
2022-11-29T04:05:45.877Z,3.10
2022-11-29T04:06:45.880Z,2.90
2022-11-29T04:07:45.921Z,3.00
2022-11-29T04:08:45.827Z,3.10
2022-11-29T04:09:45.810Z,3.10
2022-11-29T04:10:45.758Z,3.30
2022-11-29T04:11:45.884Z,3.20
2022-11-29T04:12:45.806Z,3.40
2022-11-29T04:13:45.753Z,3.60
2022-11-29T04:14:45.907Z,3.30
2022-11-29T04:15:45.796Z,3.50
2022-11-29T04:16:45.754Z,3.20
2022-11-29T04:17:45.746Z,3.30
2022-11-29T04:18:45.692Z,3.20
2022-11-29T04:19:45.721Z,3.50
2022-11-29T04:20:48.370Z,3.00
2022-11-29T04:21:46.762Z,3.20
2022-11-29T04:22:45.680Z,3.70
2022-11-29T04:23:45.666Z,2.70
2022-11-29T04:24:45.907Z,3.10
2022-11-29T04:25:45.646Z,3.90
2022-11-29T04:26:45.647Z,3.10
2022-11-29T04:27:45.643Z,3.20
2022-11-29T04:28:45.609Z,3.40
2022-11-29T04:29:45.657Z,3.20
2022-11-29T04:30:45.654Z,3.20
2022-11-29T04:31:45.607Z,3.30
2022-11-29T04:32:45.581Z,3.40
2022-11-29T04:33:45.572Z,3.10
2022-11-29T04:34:45.737Z,3.00
2022-11-29T04:35:45.525Z,3.30
2022-11-29T04:36:45.574Z,2.90
2022-11-29T04:37:45.555Z,3.00
2022-11-29T04:38:45.503Z,2.70
2022-11-29T04:39:45.557Z,3.00
2022-11-29T04:40:45.463Z,3.20
2022-11-29T04:41:45.549Z,3.10
2022-11-29T04:42:45.473Z,3.10
2022-11-29T04:43:45.465Z,3.10
2022-11-29T04:44:45.659Z,2.90
2022-11-29T04:45:45.455Z,2.90
2022-11-29T04:46:45.529Z,2.80
2022-11-29T04:47:45.478Z,2.80
2022-11-29T04:48:45.417Z,2.90
2022-11-29T04:49:45.438Z,3.10
2022-11-29T04:50:45.446Z,3.10
2022-11-29T04:51:45.391Z,3.10
2022-11-29T04:52:45.449Z,2.90
2022-11-29T04:53:45.364Z,3.10
2022-11-29T04:54:45.527Z,2.90
2022-11-29T04:55:45.385Z,3.10
2022-11-29T04:56:45.427Z,2.90
2022-11-29T04:57:45.323Z,2.80
2022-11-29T04:58:45.306Z,3.00
2022-11-29T04:59:45.355Z,3.30
2022-11-29T05:00:45.327Z,3.00
2022-11-29T05:01:45.345Z,2.90
2022-11-29T05:02:45.345Z,3.50
2022-11-29T05:03:46.931Z,3.40
2022-11-29T05:04:45.512Z,3.40
2022-11-29T05:05:45.299Z,2.90
2022-11-29T05:06:45.222Z,3.60
2022-11-29T05:07:45.228Z,2.90
2022-11-29T05:08:45.206Z,3.20
2022-11-29T05:09:45.223Z,2.90
2022-11-29T05:10:45.169Z,3.40
2022-11-29T05:11:45.178Z,3.10
2022-11-29T05:12:45.218Z,3.70
2022-11-29T05:13:45.158Z,3.30
2022-11-29T05:14:45.357Z,3.60
2022-11-29T05:15:45.229Z,2.90
2022-11-29T05:16:45.115Z,3.10
2022-11-29T05:17:45.176Z,3.00
2022-11-29T05:18:45.046Z,3.60
2022-11-29T05:19:45.123Z,3.30
2022-11-29T05:20:45.085Z,3.50
2022-11-29T05:21:45.085Z,3.40
2022-11-29T05:22:45.073Z,3.70
2022-11-29T05:23:45.076Z,3.10
2022-11-29T05:24:45.225Z,3.60
2022-11-29T05:25:45.091Z,3.70
2022-11-29T05:26:45.050Z,3.80
2022-11-29T05:27:45.031Z,3.20
2022-11-29T05:28:45.044Z,3.50
2022-11-29T05:29:44.947Z,3.50
2022-11-29T05:30:45.024Z,3.70
2022-11-29T05:31:44.947Z,3.70
2022-11-29T05:32:44.955Z,3.50
2022-11-29T05:33:44.948Z,3.70
2022-11-29T05:34:44.925Z,3.30
2022-11-29T05:35:44.954Z,3.50
2022-11-29T05:36:44.926Z,3.50
2022-11-29T05:37:44.919Z,3.30
2022-11-29T05:38:44.927Z,3.00
2022-11-29T05:39:44.903Z,3.50
2022-11-29T05:40:44.897Z,3.90
2022-11-29T05:41:44.935Z,3.20
2022-11-29T05:42:44.929Z,3.30
2022-11-29T05:43:44.864Z,3.40
2022-11-29T05:44:45.002Z,3.20
2022-11-29T05:45:44.811Z,3.00
2022-11-29T05:46:44.872Z,3.20
2022-11-29T05:47:44.830Z,2.80
2022-11-29T05:48:44.788Z,3.20
2022-11-29T05:49:44.780Z,2.80
2022-11-29T05:50:44.803Z,2.80
2022-11-29T05:51:44.744Z,3.60
2022-11-29T05:52:44.805Z,3.80
2022-11-29T05:53:44.724Z,3.60
2022-11-29T05:54:44.943Z,3.40
2022-11-29T05:55:44.759Z,3.60
2022-11-29T05:56:44.729Z,3.60
2022-11-29T05:57:44.708Z,3.30
2022-11-29T05:58:44.683Z,3.10
2022-11-29T05:59:44.733Z,3.60
2022-11-29T06:00:44.696Z,3.50
2022-11-29T06:01:44.725Z,3.20
2022-11-29T06:02:44.746Z,3.70
2022-11-29T06:03:44.672Z,3.50
2022-11-29T06:04:44.947Z,3.70
2022-11-29T06:05:44.689Z,3.50
2022-11-29T06:06:44.648Z,3.30
2022-11-29T06:07:44.789Z,4.00
2022-11-29T06:08:44.698Z,3.80
2022-11-29T06:09:44.635Z,3.90
2022-11-29T06:10:44.599Z,3.80
2022-11-29T06:11:44.602Z,3.90
2022-11-29T06:12:44.633Z,4.00
2022-11-29T06:13:44.553Z,3.30
2022-11-29T06:14:44.794Z,3.30
2022-11-29T06:15:44.575Z,3.80
2022-11-29T06:16:44.603Z,3.50
2022-11-29T06:17:44.649Z,3.80
2022-11-29T06:18:44.578Z,3.40
2022-11-29T06:19:44.498Z,3.80
2022-11-29T06:20:44.488Z,3.90
2022-11-29T06:21:44.528Z,3.90
2022-11-29T06:22:44.495Z,3.90
2022-11-29T06:23:44.488Z,3.50
2022-11-29T06:24:44.602Z,3.60
2022-11-29T06:25:44.483Z,3.50
2022-11-29T06:26:44.495Z,3.90
2022-11-29T06:27:44.525Z,4.00
2022-11-29T06:28:44.445Z,3.30
2022-11-29T06:29:44.478Z,3.20
2022-11-29T06:30:44.384Z,3.40
2022-11-29T06:31:44.535Z,3.20
2022-11-29T06:32:44.381Z,3.50
2022-11-29T06:33:44.495Z,4.00
2022-11-29T06:34:44.697Z,3.30
2022-11-29T06:35:44.472Z,3.30
2022-11-29T06:36:44.350Z,3.10
2022-11-29T06:37:44.623Z,3.50
2022-11-29T06:38:45.424Z,3.00
2022-11-29T06:39:44.506Z,3.40
2022-11-29T06:40:44.431Z,3.30
2022-11-29T06:41:44.372Z,3.60
2022-11-29T06:42:44.343Z,3.40
2022-11-29T06:43:44.503Z,3.60
2022-11-29T06:44:44.460Z,3.20
2022-11-29T06:45:44.310Z,3.40
2022-11-29T06:46:44.246Z,3.40
2022-11-29T06:47:44.289Z,3.80
2022-11-29T06:48:44.262Z,3.40
2022-11-29T06:49:44.260Z,3.60
2022-11-29T06:50:44.339Z,3.50
2022-11-29T06:51:44.197Z,3.00
2022-11-29T06:52:44.217Z,3.00
2022-11-29T06:53:44.237Z,3.40
2022-11-29T06:54:44.502Z,3.40
2022-11-29T06:55:44.163Z,3.90
2022-11-29T06:56:44.339Z,3.90
2022-11-29T06:57:44.116Z,3.40
2022-11-29T06:58:44.173Z,3.20
2022-11-29T06:59:44.717Z,3.50
2022-11-29T07:00:44.951Z,3.30
2022-11-29T07:01:47.308Z,3.20
2022-11-29T07:02:45.374Z,3.30
2022-11-29T07:03:44.548Z,3.30
2022-11-29T07:04:46.115Z,3.40
2022-11-29T07:05:45.518Z,3.50
2022-11-29T07:06:44.483Z,3.30
2022-11-29T07:07:44.984Z,3.60
2022-11-29T07:08:44.309Z,3.10
2022-11-29T07:09:44.771Z,3.60
2022-11-29T07:10:44.582Z,3.40
2022-11-29T07:11:44.764Z,3.70
2022-11-29T07:12:44.324Z,3.90
2022-11-29T07:13:44.606Z,3.50
2022-11-29T07:14:44.703Z,3.20
2022-11-29T07:15:44.451Z,3.40
2022-11-29T07:16:44.239Z,3.20
2022-11-29T07:17:44.456Z,3.20
2022-11-29T07:18:44.269Z,3.00
2022-11-29T07:19:44.240Z,3.20
2022-11-29T07:20:44.292Z,3.70
2022-11-29T07:21:44.311Z,3.70
2022-11-29T07:22:44.340Z,3.70
2022-11-29T07:23:44.283Z,4.00
2022-11-29T07:24:44.785Z,3.50
2022-11-29T07:25:44.681Z,3.70
2022-11-29T07:26:44.331Z,3.90
2022-11-29T07:27:45.828Z,3.60
2022-11-29T07:28:44.785Z,4.20
2022-11-29T07:29:44.571Z,3.60
2022-11-29T07:30:44.820Z,3.70
2022-11-29T07:31:44.503Z,3.30
2022-11-29T07:32:50.076Z,4.20
2022-11-29T07:33:46.325Z,4.40
2022-11-29T07:34:44.223Z,4.00
2022-11-29T07:35:44.152Z,4.40
2022-11-29T07:36:44.256Z,4.60
2022-11-29T07:37:44.258Z,3.80
2022-11-29T07:38:44.411Z,3.50
2022-11-29T07:39:44.164Z,4.10
2022-11-29T07:40:44.095Z,3.90
2022-11-29T07:41:44.116Z,3.90
2022-11-29T07:42:44.071Z,3.70
2022-11-29T07:43:44.129Z,3.80
2022-11-29T07:44:44.447Z,3.70
2022-11-29T07:45:44.064Z,3.50
2022-11-29T07:46:43.997Z,4.10
2022-11-29T07:47:43.925Z,3.60
2022-11-29T07:48:44.182Z,3.60
2022-11-29T07:49:44.156Z,3.40
2022-11-29T07:50:44.412Z,3.70
2022-11-29T07:51:44.071Z,3.80
2022-11-29T07:52:44.046Z,3.30
2022-11-29T07:53:43.951Z,3.20
2022-11-29T07:54:44.359Z,3.30
2022-11-29T07:55:44.002Z,3.70
2022-11-29T07:56:43.989Z,3.40
2022-11-29T07:57:44.195Z,3.40
2022-11-29T07:58:44.499Z,3.50
2022-11-29T07:59:44.329Z,4.10
2022-11-29T08:00:44.323Z,3.60
2022-11-29T08:01:44.719Z,3.50
2022-11-29T08:02:43.978Z,4.00
2022-11-29T08:03:44.150Z,4.30
2022-11-29T08:06:28.155Z,4.10
2022-11-29T08:07:28.228Z,3.60
2022-11-29T08:08:28.199Z,3.80
2022-11-29T08:09:28.164Z,4.10
2022-11-29T08:10:28.149Z,3.70
2022-11-29T08:11:29.409Z,3.90
2022-11-29T08:12:29.291Z,3.80
2022-11-29T08:13:29.323Z,3.90
2022-11-29T08:14:29.287Z,3.80
2022-11-29T08:15:29.264Z,3.90
2022-11-29T08:16:29.285Z,3.80
2022-11-29T08:17:29.239Z,3.70
2022-11-29T08:18:29.271Z,3.80
2022-11-29T08:19:29.244Z,3.50
2022-11-29T08:20:29.197Z,3.80
2022-11-29T08:21:29.269Z,3.40
2022-11-29T08:22:29.220Z,4.00
2022-11-29T08:23:29.258Z,3.40
2022-11-29T08:24:29.162Z,4.40
2022-11-29T08:25:29.182Z,4.20
2022-11-29T08:26:31.616Z,4.00
2022-11-29T08:27:30.160Z,4.10
2022-11-29T08:28:29.151Z,4.40
2022-11-29T08:29:29.185Z,4.60
2022-11-29T08:30:29.120Z,4.40
2022-11-29T08:31:29.164Z,4.60
2022-11-29T08:32:29.136Z,3.70
2022-11-29T08:33:29.129Z,4.80
2022-11-29T08:34:29.067Z,4.00
2022-11-29T08:35:29.100Z,4.00
2022-11-29T08:36:29.084Z,4.30
2022-11-29T08:37:29.064Z,3.80
2022-11-29T08:38:29.107Z,4.00
2022-11-29T08:39:29.047Z,3.90
2022-11-29T08:40:29.038Z,3.90
2022-11-29T08:41:29.141Z,3.60
2022-11-29T08:42:29.013Z,3.60
2022-11-29T08:43:29.036Z,3.90
2022-11-29T08:44:28.988Z,3.30
2022-11-29T08:45:28.996Z,2.90
2022-11-29T08:46:28.985Z,3.30
2022-11-29T08:47:28.960Z,3.10
2022-11-29T08:48:28.952Z,3.00
2022-11-29T08:49:28.985Z,2.80
2022-11-29T08:50:28.926Z,3.10
2022-11-29T08:51:28.944Z,2.90
2022-11-29T08:52:28.951Z,2.90
2022-11-29T08:53:28.878Z,3.20
2022-11-29T08:54:28.890Z,3.20
2022-11-29T08:55:28.892Z,2.80
2022-11-29T08:57:39.948Z,2.70
2022-11-29T08:58:30.899Z,3.10
2022-11-29T08:59:28.833Z,3.20
2022-11-29T09:00:28.838Z,3.10
2022-11-29T09:01:28.887Z,2.80
2022-11-29T09:02:29.850Z,2.90
2022-11-29T09:03:28.825Z,2.50
2022-11-29T09:04:28.847Z,2.70
2022-11-29T09:05:28.777Z,2.80
2022-11-29T09:06:28.772Z,2.20
2022-11-29T09:07:28.776Z,2.30
2022-11-29T09:08:28.781Z,2.80
2022-11-29T09:09:28.751Z,2.40
2022-11-29T09:10:28.709Z,2.70
2022-11-29T09:11:28.717Z,3.10
2022-11-29T09:12:28.727Z,2.00
2022-11-29T09:13:28.722Z,2.60
2022-11-29T09:14:28.736Z,2.30
2022-11-29T09:15:28.670Z,3.60
2022-11-29T09:16:28.757Z,2.40
2022-11-29T09:17:28.697Z,3.20
2022-11-29T09:18:28.646Z,2.20
2022-11-29T09:19:28.672Z,2.50
2022-11-29T09:20:28.656Z,2.70
2022-11-29T09:21:28.619Z,2.70
2022-11-29T09:22:28.589Z,2.30
2022-11-29T09:23:28.610Z,2.80
2022-11-29T09:24:28.624Z,2.70
2022-11-29T09:25:28.589Z,2.70
2022-11-29T09:26:28.576Z,2.60
2022-11-29T09:27:28.567Z,2.90
2022-11-29T09:28:28.567Z,2.50
2022-11-29T09:29:28.594Z,2.50
2022-11-29T09:30:28.538Z,2.60
2022-11-29T09:31:28.541Z,3.40
2022-11-29T09:32:28.565Z,2.90
2022-11-29T09:33:28.512Z,2.40
2022-11-29T09:34:28.540Z,3.00
2022-11-29T09:35:28.477Z,2.80
2022-11-29T09:36:29.409Z,2.60
2022-11-29T09:37:29.513Z,2.70
2022-11-29T09:38:28.477Z,3.10
2022-11-29T09:39:28.464Z,2.60
2022-11-29T09:40:28.420Z,3.00
2022-11-29T09:41:28.444Z,2.60
2022-11-29T09:42:28.436Z,3.30
2022-11-29T09:43:28.446Z,2.70
2022-11-29T09:44:28.470Z,3.50
2022-11-29T09:45:28.414Z,3.20
2022-11-29T09:46:28.394Z,3.00
2022-11-29T09:47:28.378Z,2.70
2022-11-29T09:48:28.361Z,2.70
2022-11-29T09:49:28.378Z,3.10
2022-11-29T09:50:28.327Z,2.90
2022-11-29T09:51:28.318Z,3.20
2022-11-29T09:52:28.296Z,3.30
2022-11-29T09:53:28.355Z,3.00
2022-11-29T09:54:28.330Z,3.00
2022-11-29T09:55:28.328Z,3.80
2022-11-29T09:56:28.320Z,3.20
2022-11-29T09:57:28.309Z,3.00
2022-11-29T09:58:28.305Z,3.40
2022-11-29T09:59:28.290Z,3.10
2022-11-29T10:00:28.225Z,3.10
2022-11-29T10:01:28.345Z,3.00
2022-11-29T10:02:28.286Z,3.20
2022-11-29T10:03:28.261Z,3.20
2022-11-29T10:04:28.297Z,2.60
2022-11-29T10:05:28.205Z,3.00
2022-11-29T10:06:28.216Z,2.60
2022-11-29T10:07:28.233Z,3.40
2022-11-29T10:08:28.162Z,2.80
2022-11-29T10:09:33.380Z,3.00
2022-11-29T10:10:30.151Z,3.30
2022-11-29T10:11:28.161Z,2.90
2022-11-29T10:12:28.168Z,3.10
2022-11-29T10:13:28.145Z,3.30
2022-11-29T10:14:28.136Z,2.70
2022-11-29T10:15:28.137Z,3.20
2022-11-29T10:16:28.157Z,3.10
2022-11-29T10:17:28.105Z,3.00
2022-11-29T10:18:28.078Z,2.60
2022-11-29T10:19:28.095Z,2.20
2022-11-29T10:20:28.038Z,2.30
2022-11-29T10:21:28.042Z,2.20
2022-11-29T10:22:28.062Z,2.50
2022-11-29T10:23:28.038Z,2.60
2022-11-29T10:24:28.072Z,2.10
2022-11-29T10:25:28.022Z,2.20
2022-11-29T10:26:33.552Z,2.10
2022-11-29T10:27:27.964Z,2.40
2022-11-29T10:28:27.984Z,2.30
2022-11-29T10:29:27.968Z,2.50
2022-11-29T10:30:28.040Z,2.40
2022-11-29T10:31:27.945Z,2.90
2022-11-29T10:32:27.952Z,2.90
2022-11-29T10:33:27.944Z,2.70
2022-11-29T10:34:27.945Z,2.60
2022-11-29T10:35:27.895Z,2.50
2022-11-29T10:36:27.915Z,2.30
2022-11-29T10:37:27.921Z,2.60
2022-11-29T10:38:31.817Z,2.40
2022-11-29T10:39:28.911Z,2.10
2022-11-29T10:40:27.860Z,2.20
2022-11-29T10:41:27.865Z,2.50
2022-11-29T10:42:27.810Z,2.70
2022-11-29T10:43:27.850Z,2.20
2022-11-29T10:44:27.820Z,2.30
2022-11-29T10:45:27.846Z,2.10
2022-11-29T10:46:27.816Z,2.30
2022-11-29T10:47:27.800Z,1.90
2022-11-29T10:48:27.795Z,2.10
2022-11-29T10:49:27.808Z,2.20
2022-11-29T10:50:27.775Z,2.20
2022-11-29T10:51:27.789Z,2.60
2022-11-29T10:52:27.797Z,2.40
2022-11-29T10:53:27.744Z,2.50
2022-11-29T10:54:27.707Z,2.30
2022-11-29T10:55:27.728Z,2.60
2022-11-29T10:56:27.706Z,2.60
2022-11-29T10:57:27.654Z,2.80
2022-11-29T10:58:28.855Z,2.60
2022-11-29T10:59:28.697Z,2.60
2022-11-29T11:00:27.619Z,2.90
2022-11-29T11:01:27.713Z,2.90
2022-11-29T11:02:27.691Z,2.90
2022-11-29T11:03:27.656Z,3.00
2022-11-29T11:04:27.673Z,2.50
2022-11-29T11:05:27.628Z,3.20
2022-11-29T11:06:27.652Z,2.90
2022-11-29T11:07:27.604Z,3.10
2022-11-29T11:08:27.598Z,3.20
2022-11-29T11:09:27.589Z,3.00
2022-11-29T11:10:27.575Z,3.40
2022-11-29T11:11:27.556Z,3.30
2022-11-29T11:12:27.539Z,3.60
2022-11-29T11:13:27.536Z,3.60
2022-11-29T11:14:27.560Z,2.70
2022-11-29T11:15:27.508Z,3.20
2022-11-29T11:16:28.914Z,3.70
2022-11-29T11:17:27.554Z,2.90
2022-11-29T11:18:27.475Z,3.10
2022-11-29T11:19:27.513Z,3.30
2022-11-29T11:20:27.450Z,3.10
2022-11-29T11:21:27.470Z,3.60
2022-11-29T11:22:27.454Z,3.10
2022-11-29T11:23:27.424Z,3.40
2022-11-29T11:24:27.442Z,3.50
2022-11-29T11:25:27.427Z,3.30
2022-11-29T11:26:27.423Z,3.50
2022-11-29T11:27:27.365Z,3.20
2022-11-29T11:28:27.394Z,3.70
2022-11-29T11:29:27.387Z,3.10
2022-11-29T11:30:27.550Z,3.40
2022-11-29T11:31:27.362Z,2.90
2022-11-29T11:32:27.330Z,3.30
2022-11-29T11:33:27.360Z,3.80
2022-11-29T11:34:28.373Z,3.50
2022-11-29T11:35:27.311Z,4.00
2022-11-29T11:36:27.355Z,3.60
2022-11-29T11:37:27.307Z,3.20
2022-11-29T11:38:27.293Z,3.70
2022-11-29T11:39:27.296Z,3.30
2022-11-29T11:40:27.379Z,3.30
2022-11-29T11:41:27.254Z,3.00
2022-11-29T11:42:27.209Z,3.20
2022-11-29T11:43:27.248Z,3.70
2022-11-29T11:44:46.400Z,3.10
2022-11-29T11:45:29.206Z,3.40
2022-11-29T11:46:27.264Z,3.90
2022-11-29T11:47:27.195Z,3.80
2022-11-29T11:48:27.172Z,3.50
2022-11-29T11:49:27.183Z,3.40
2022-11-29T11:50:27.196Z,3.00
2022-11-29T11:51:27.138Z,2.90
2022-11-29T11:52:27.133Z,3.40
2022-11-29T11:53:27.115Z,2.70
2022-11-29T11:54:27.125Z,2.40
2022-11-29T11:55:27.149Z,2.20
2022-11-29T11:56:27.102Z,2.20
2022-11-29T11:57:27.086Z,2.50
2022-11-29T11:58:27.055Z,2.50
2022-11-29T11:59:27.067Z,2.80
2022-11-29T12:00:55.454Z,2.30
2022-11-29T12:01:29.036Z,2.50
2022-11-29T12:02:27.224Z,2.80
2022-11-29T12:03:27.017Z,2.60
2022-11-29T12:04:27.031Z,2.70
2022-11-29T12:05:27.046Z,3.10
2022-11-29T12:06:27.032Z,2.70
2022-11-29T12:07:59.344Z,2.70
2022-11-29T12:08:29.057Z,2.90
2022-11-29T12:09:27.007Z,2.80
2022-11-29T12:10:26.979Z,2.80
2022-11-29T12:11:26.946Z,3.10
2022-11-29T12:12:26.959Z,3.50
2022-11-29T12:13:26.938Z,3.30
2022-11-29T12:14:26.950Z,3.10
2022-11-29T12:15:26.964Z,3.10
2022-11-29T12:16:26.898Z,3.40
2022-11-29T12:17:26.895Z,3.20
2022-11-29T12:18:26.893Z,3.20
2022-11-29T12:19:26.885Z,3.20
2022-11-29T12:20:26.874Z,2.90
2022-11-29T12:21:26.860Z,3.60
2022-11-29T12:22:27.843Z,3.30
2022-11-29T12:23:26.848Z,3.70
2022-11-29T12:24:26.809Z,3.60
2022-11-29T12:25:26.961Z,3.90
2022-11-29T12:26:55.810Z,3.50
2022-11-29T12:27:28.788Z,3.60
2022-11-29T12:28:26.794Z,3.70
2022-11-29T12:29:26.749Z,3.50
2022-11-29T12:30:26.813Z,3.30
2022-11-29T12:31:26.781Z,3.80
2022-11-29T12:32:26.775Z,4.00
2022-11-29T12:33:26.716Z,3.70
2022-11-29T12:34:26.742Z,2.80
2022-11-29T12:35:26.717Z,3.10
2022-11-29T12:36:26.711Z,3.50
2022-11-29T12:37:26.684Z,3.60
2022-11-29T12:38:26.657Z,3.20
2022-11-29T12:39:26.696Z,3.50
2022-11-29T12:40:26.679Z,3.50
2022-11-29T12:41:26.656Z,3.40
2022-11-29T12:42:26.673Z,3.10
2022-11-29T12:43:26.624Z,3.40
2022-11-29T12:44:26.620Z,3.10
2022-11-29T12:45:26.622Z,3.40
2022-11-29T12:46:26.681Z,3.60
2022-11-29T12:47:41.899Z,3.70
2022-11-29T12:48:28.593Z,3.70
2022-11-29T12:49:26.576Z,4.20
2022-11-29T12:50:26.584Z,4.10
2022-11-29T12:51:26.538Z,4.30
2022-11-29T12:52:26.550Z,4.10
2022-11-29T12:53:27.678Z,4.20
2022-11-29T12:54:27.548Z,3.80
2022-11-29T12:55:26.509Z,4.30
2022-11-29T12:56:26.490Z,4.50
2022-11-29T12:57:26.513Z,4.70
2022-11-29T12:58:26.501Z,5.20
2022-11-29T12:59:26.463Z,5.20
2022-11-29T13:00:26.479Z,4.80
2022-11-29T13:01:26.496Z,4.40
2022-11-29T13:02:26.442Z,4.50
2022-11-29T13:03:26.438Z,5.00
2022-11-29T13:04:26.439Z,4.50
2022-11-29T13:05:26.409Z,5.20
2022-11-29T13:06:26.425Z,4.90
2022-11-29T13:07:26.475Z,4.50
2022-11-29T13:08:26.413Z,4.00
2022-11-29T13:09:26.384Z,4.50
2022-11-29T13:10:26.357Z,5.20
2022-11-29T13:11:26.374Z,4.20
2022-11-29T13:12:26.341Z,4.80
2022-11-29T13:13:26.357Z,4.30
2022-11-29T13:14:43.317Z,4.90
2022-11-29T13:15:28.338Z,5.60
2022-11-29T13:16:30.864Z,5.00
2022-11-29T13:17:28.282Z,4.80
2022-11-29T13:18:26.294Z,5.70
2022-11-29T13:19:26.296Z,5.00
2022-11-29T13:20:26.289Z,5.60
2022-11-29T13:21:26.257Z,4.90
2022-11-29T13:22:26.223Z,4.30
2022-11-29T13:23:45.488Z,4.90
2022-11-29T13:24:27.230Z,4.30
2022-11-29T13:25:26.231Z,4.50
2022-11-29T13:26:26.211Z,5.30
2022-11-29T13:27:26.192Z,4.70
2022-11-29T13:28:26.189Z,5.20
2022-11-29T13:29:26.160Z,5.60
2022-11-29T13:30:26.183Z,4.50
2022-11-29T13:31:26.210Z,5.60
2022-11-29T13:32:26.141Z,5.30
2022-11-29T13:33:26.129Z,5.70
2022-11-29T13:34:26.120Z,5.40
2022-11-29T13:35:26.146Z,6.40
2022-11-29T13:36:26.123Z,7.10
2022-11-29T13:37:26.129Z,6.00
2022-11-29T13:38:26.080Z,5.80
2022-11-29T13:39:26.074Z,6.30
2022-11-29T13:40:26.119Z,6.00
2022-11-29T13:41:26.114Z,6.20
2022-11-29T13:42:26.051Z,5.80
2022-11-29T13:43:26.377Z,6.10
2022-11-29T13:44:26.010Z,5.80
2022-11-29T13:45:26.058Z,6.30
2022-11-29T13:46:26.099Z,6.10
2022-11-29T13:47:26.011Z,5.80
2022-11-29T13:48:28.134Z,6.20
2022-11-29T13:49:26.957Z,6.00
2022-11-29T13:50:25.966Z,6.30
2022-11-29T13:51:25.969Z,5.70
2022-11-29T13:52:25.928Z,5.90
2022-11-29T13:53:25.962Z,6.20
2022-11-29T13:54:25.948Z,6.50
2022-11-29T13:55:25.956Z,6.90
2022-11-29T13:56:25.917Z,7.10
2022-11-29T13:57:25.895Z,7.00
2022-11-29T13:58:25.883Z,6.80
2022-11-29T13:59:25.912Z,6.30
2022-11-29T14:00:25.879Z,6.60
2022-11-29T14:01:25.877Z,6.50
2022-11-29T14:02:25.869Z,6.70
2022-11-29T14:03:25.846Z,6.50
2022-11-29T14:04:25.823Z,7.00
2022-11-29T14:06:13.131Z,6.10
2022-11-29T14:11:05.788Z,6.50
2022-11-29T14:12:08.060Z,7.00
2022-11-29T14:16:02.319Z,6.20
2022-11-29T14:20:58.107Z,6.50
2022-11-29T14:21:59.786Z,6.20
2022-11-29T14:23:32.727Z,5.80
2022-11-29T14:26:10.986Z,6.50
2022-11-29T14:30:49.346Z,5.90
2022-11-29T14:31:24.228Z,5.90
2022-11-29T14:35:00.047Z,6.60
2022-11-29T14:36:15.283Z,6.00
2022-11-29T14:36:53.601Z,6.60
2022-11-29T14:39:09.813Z,6.20
2022-11-29T14:40:24.620Z,7.00
2022-11-29T14:41:38.291Z,7.40
2022-11-29T14:44:36.174Z,6.60
2022-11-29T14:45:36.181Z,7.20
2022-11-29T14:46:36.708Z,7.60
2022-11-29T14:47:39.442Z,7.40
2022-11-29T14:48:44.439Z,7.90
2022-11-29T14:49:49.785Z,8.10
2022-11-29T14:51:08.824Z,7.50
2022-11-29T14:53:02.739Z,6.50
2022-11-29T14:54:06.007Z,7.10
2022-11-29T14:55:06.295Z,6.90
2022-11-29T14:56:05.517Z,7.70
2022-11-29T14:57:05.001Z,7.30
2022-11-29T14:59:20.681Z,6.90
2022-11-29T15:00:49.908Z,7.30
2022-11-29T15:06:20.914Z,7.60
2022-11-29T15:07:34.837Z,9.50
2022-11-29T15:10:07.906Z,9.40
2022-11-29T15:11:32.039Z,10.20
2022-11-29T15:15:01.726Z,7.60
2022-11-29T15:16:07.428Z,7.50
2022-11-29T15:17:02.364Z,7.10
2022-11-29T15:18:01.876Z,7.10
2022-11-29T15:19:01.666Z,7.90
2022-11-29T15:25:25.610Z,7.10
2022-11-29T15:26:28.009Z,7.90
2022-11-29T15:27:39.861Z,8.00
2022-11-29T15:37:04.857Z,8.20
2022-11-29T15:38:06.486Z,8.00
2022-11-29T15:39:08.248Z,7.30
2022-11-29T15:40:54.030Z,7.40
2022-11-29T15:45:07.639Z,7.90
2022-11-29T15:46:06.887Z,7.80
2022-11-29T15:47:16.517Z,8.40
2022-11-29T15:48:37.973Z,7.70
2022-11-29T15:53:05.658Z,8.30
2022-11-29T15:54:12.809Z,7.70
2022-11-29T15:59:18.631Z,8.30
2022-11-29T16:00:31.828Z,9.20
2022-11-29T16:03:38.505Z,8.40
2022-11-29T16:04:46.835Z,8.90
2022-11-29T16:08:02.208Z,8.30
2022-11-29T16:10:35.023Z,7.40
2022-11-29T16:13:00.565Z,6.40
2022-11-29T16:14:16.601Z,6.90
2022-11-29T16:15:07.446Z,7.00
2022-11-29T16:16:16.470Z,7.20
2022-11-29T16:17:18.257Z,6.80
2022-11-29T16:20:58.921Z,6.60
2022-11-29T16:23:30.387Z,7.20
2022-11-29T16:26:46.988Z,7.50
2022-11-29T16:32:25.975Z,8.80
2022-11-29T16:34:00.836Z,7.70
2022-11-29T16:34:30.665Z,8.40
2022-11-29T16:37:38.749Z,7.20
2022-11-29T16:38:39.184Z,7.10
2022-11-29T16:39:39.408Z,6.30
2022-11-29T16:40:39.425Z,6.40
2022-11-29T16:41:38.975Z,6.90
2022-11-29T16:42:38.787Z,6.70
2022-11-29T16:43:38.944Z,6.40
2022-11-29T16:45:14.660Z,7.00
2022-11-29T16:48:52.115Z,6.30
2022-11-29T16:49:50.908Z,5.90
2022-11-29T16:51:40.874Z,6.40
2022-11-29T16:54:21.637Z,6.30
2022-11-29T16:54:57.038Z,6.30
2022-11-29T16:56:05.479Z,6.20
2022-11-29T16:59:20.807Z,5.90
2022-11-29T16:59:25.003Z,5.70
2022-11-29T17:00:05.924Z,5.90
2022-11-29T17:01:08.651Z,5.70
2022-11-29T17:02:06.939Z,6.20
2022-11-29T17:03:11.677Z,6.50
2022-11-29T17:04:36.109Z,6.20
2022-11-29T17:05:05.220Z,6.40
2022-11-29T17:06:03.564Z,5.70
2022-11-29T17:10:41.823Z,6.20
2022-11-29T17:11:42.498Z,6.70
2022-11-29T17:12:47.613Z,6.70
2022-11-29T17:13:42.380Z,6.10
2022-11-29T17:14:42.217Z,6.70
2022-11-29T17:17:08.688Z,6.40
2022-11-29T17:18:09.077Z,7.00
2022-11-29T17:19:18.356Z,6.90
2022-11-29T17:20:17.233Z,6.50
2022-11-29T17:21:18.126Z,6.30
2022-11-29T17:22:52.998Z,6.60
2022-11-29T17:23:20.900Z,6.30
2022-11-29T17:24:30.041Z,6.40
2022-11-29T17:25:14.847Z,6.20
2022-11-29T17:26:27.665Z,6.00
2022-11-29T17:27:29.692Z,6.10
2022-11-29T17:28:13.694Z,6.30
2022-11-29T17:29:13.400Z,5.90
2022-11-29T17:30:12.258Z,6.70
2022-11-29T17:31:15.296Z,6.00
2022-11-29T17:32:16.185Z,6.60
2022-11-29T17:33:11.824Z,5.50
2022-11-29T17:34:12.765Z,6.20
2022-11-29T17:35:11.782Z,6.10
2022-11-29T17:36:12.211Z,6.30
2022-11-29T17:37:12.188Z,6.70
2022-11-29T17:38:11.850Z,6.40
2022-11-29T17:39:12.297Z,6.20
2022-11-29T17:40:12.575Z,5.90
2022-11-29T17:41:13.911Z,6.40
2022-11-29T17:42:13.164Z,6.40
2022-11-29T17:43:15.926Z,5.80
2022-11-29T17:44:13.516Z,6.70
2022-11-29T17:45:23.850Z,6.20
2022-11-29T17:49:43.366Z,6.00
2022-11-29T17:50:43.878Z,6.70
2022-11-29T17:51:52.106Z,6.30
2022-11-29T17:52:44.297Z,6.50
2022-11-29T17:53:43.436Z,6.10
2022-11-29T17:54:43.453Z,6.60
2022-11-29T17:55:43.634Z,6.50
2022-11-29T17:56:43.542Z,5.70
2022-11-29T17:57:50.784Z,5.60
2022-11-29T17:58:52.061Z,6.70
2022-11-29T18:00:55.434Z,5.80
2022-11-29T18:03:19.891Z,5.40
2022-11-29T18:04:37.711Z,5.50
2022-11-29T18:07:54.023Z,5.70
2022-11-29T18:10:15.473Z,5.30
2022-11-29T18:15:41.952Z,5.00
2022-11-29T18:22:53.989Z,4.20
2022-11-29T18:24:11.089Z,6.40
2022-11-29T18:31:01.975Z,5.00
2022-11-29T18:48:52.780Z,6.20
2022-11-29T18:49:52.251Z,5.40
2022-11-29T18:50:52.155Z,5.30
2022-11-29T18:51:52.069Z,5.50
2022-11-29T18:52:51.986Z,5.90
2022-11-29T18:53:52.500Z,5.20
2022-11-29T18:54:51.922Z,5.40
2022-11-29T18:55:51.967Z,5.50
2022-11-29T18:56:51.934Z,5.60
2022-11-29T18:57:51.900Z,5.80
2022-11-29T18:58:56.727Z,6.50
2022-11-29T18:59:53.991Z,6.20
2022-11-29T19:00:51.930Z,6.30
2022-11-29T19:01:51.984Z,5.90
2022-11-29T19:02:51.940Z,6.50
2022-11-29T19:03:51.876Z,7.20
2022-11-29T19:04:51.897Z,6.80
2022-11-29T19:05:51.862Z,6.80
2022-11-29T19:06:51.831Z,7.00
2022-11-29T19:07:51.920Z,7.20
2022-11-29T19:08:51.782Z,7.30
2022-11-29T19:09:51.772Z,6.80
2022-11-29T19:10:51.783Z,7.40
2022-11-29T19:11:51.953Z,7.50
2022-11-29T19:12:51.896Z,6.90
2022-11-29T19:13:51.867Z,7.30
2022-11-29T19:14:52.053Z,7.60
2022-11-29T19:15:51.781Z,7.00
2022-11-29T19:16:51.804Z,6.90
2022-11-29T19:17:51.738Z,6.70
2022-11-29T19:18:51.815Z,7.00
2022-11-29T19:19:51.775Z,7.20
2022-11-29T19:20:51.718Z,6.40
2022-11-29T19:21:51.720Z,6.60
2022-11-29T19:22:56.083Z,7.70
2022-11-29T19:23:53.645Z,6.60
2022-11-29T19:24:51.723Z,7.10